Main page
METAR-TAF:

METAR-TAF

Airports :

Carcassonne Airport

Carcassonne, France

latitude: 43-13N, longitude: 002-19E, elevation: 130 m

Current weather observation

The report was made 40 minutes ago, at 22:30 UTC
Wind 5 kt from the West, varying between West/Southwest and Northwest
Temperature 13°C
Humidity 94%
Pressure 1024 hPa
Visibility 10 km or more
Few clouds at a height of 4000 ft
Broken clouds at a height of 5400 ft
Overcast at a height of 7400 ft

METAR: LFMK 282230Z AUTO 27005KT 240V310 9999 FEW040 BKN054 OVC074 13/12 Q1024

Time: 00:10 (23:10 UTC)

Forecast

The report was made 8 hours and 18 minutes ago, at 14:52 UTC
Forecast valid from 28 at 15 UTC to 29 at 15 UTC
Wind 10 kt from the West
Visibility 10 km or more
Few clouds at a height of 4500 ft
Broken clouds at a height of 7500 ft
Becoming
from 29 at 07 UTC to 29 at 09 UTC
Visibility 10 km or more
no clouds below 1500 m and no cumulonimbus

TAF: LFMK 281452Z 2815/2915 28010KT 9999 FEW045 BKN075 BECMG 2907/2909 CAVOK

Weather observations and forecasts of more than 4000 airports (METAR and TAF reports).

The available stations are represented by yellow and red dots on the map.

Hover mouse over dot to see the name of the station.

Then click to see weather observations and forecasts.

To change the map : click on the green buttons with a black cross to zoom in, on the green button with a dash to zoom out, or on the green arrows for adjacent maps.


METAR-TAF: